ITY1157 LIRF-LICR
Flight info
| Callsign | ITY1157 |
|---|---|
| Flight time | 0h 53m |
| Altitude | 33000 |
| Route | RIFFI DCT PNZ DCT ISKIA DCT SOR/N0378F190 Q58 FOSQA |
| Aircraft | A20N/M-SDE2E3FGHIRWXY/LB1 |
Departure
| Time | 2026-05-05 16:59 |
|---|---|
| Airport | Rome–Fiumicino Leonardo da Vinci International Airport (LIRF) |
Arrival
| Time | 2026-05-05 17:53 |
|---|---|
| Airport | Reggio Calabria Airport (LICR) |
| Time | Latitude | Longitude | Altitude | Speed | Heading |
|---|---|---|---|---|---|
| 2026-05-05 16:29 | 41.79593 | 12.25765 | 21 ft | 0 kts | 116° |
| 2026-05-05 16:48 | 41.79593 | 12.25764 | 21 ft | 1 kts | 115° |
| 2026-05-05 16:49 | 41.79600 | 12.25747 | 21 ft | 2 kts | 119° |
| 2026-05-05 16:49 | 41.79607 | 12.25730 | 21 ft | 2 kts | 117° |
| 2026-05-05 16:49 | 41.79613 | 12.25714 | 21 ft | 0 kts | 118° |
| 2026-05-05 16:49 | 41.79616 | 12.25710 | 21 ft | 0 kts | 89° |
| 2026-05-05 16:50 | 41.79615 | 12.25703 | 21 ft | 0 kts | 36° |
| 2026-05-05 16:50 | 41.79610 | 12.25701 | 21 ft | 1 kts | 21° |
| 2026-05-05 16:50 | 41.79607 | 12.25699 | 21 ft | 0 kts | 25° |
| 2026-05-05 16:52 | 41.79612 | 12.25703 | 21 ft | 2 kts | 25° |
| 2026-05-05 16:53 | 41.79654 | 12.25728 | 21 ft | 10 kts | 24° |
| 2026-05-05 16:53 | 41.79742 | 12.25781 | 20 ft | 16 kts | 25° |
| 2026-05-05 16:53 | 41.79847 | 12.25827 | 20 ft | 16 kts | 343° |
| 2026-05-05 16:53 | 41.79953 | 12.25870 | 19 ft | 16 kts | 24° |
| 2026-05-05 16:54 | 41.80065 | 12.25940 | 18 ft | 18 kts | 26° |
| 2026-05-05 16:54 | 41.80184 | 12.26018 | 17 ft | 19 kts | 24° |
| 2026-05-05 16:54 | 41.80307 | 12.26087 | 17 ft | 19 kts | 25° |
| 2026-05-05 16:54 | 41.80380 | 12.26229 | 16 ft | 19 kts | 70° |
| 2026-05-05 16:55 | 41.80427 | 12.26399 | 15 ft | 19 kts | 69° |
| 2026-05-05 16:55 | 41.80474 | 12.26576 | 14 ft | 20 kts | 71° |
| 2026-05-05 16:55 | 41.80526 | 12.26755 | 13 ft | 20 kts | 70° |
| 2026-05-05 16:55 | 41.80578 | 12.26937 | 12 ft | 21 kts | 69° |
| 2026-05-05 16:56 | 41.80681 | 12.27048 | 12 ft | 20 kts | 3° |
| 2026-05-05 16:56 | 41.80820 | 12.27031 | 12 ft | 19 kts | 341° |
| 2026-05-05 16:56 | 41.80870 | 12.27008 | 12 ft | 0 kts | 339° |
| 2026-05-05 16:57 | 41.80877 | 12.27005 | 12 ft | 3 kts | 339° |
| 2026-05-05 16:57 | 41.80920 | 12.26983 | 12 ft | 10 kts | 338° |
| 2026-05-05 16:57 | 41.80946 | 12.26883 | 12 ft | 14 kts | 241° |
| 2026-05-05 16:58 | 41.80935 | 12.26852 | 13 ft | 0 kts | 246° |
| 2026-05-05 16:58 | 41.80928 | 12.26831 | 13 ft | 19 kts | 248° |
| 2026-05-05 16:58 | 41.80763 | 12.26300 | 16 ft | 100 kts | 250° |
| 2026-05-05 16:58 | 41.80439 | 12.25149 | 38 ft | 159 kts | 245° |
| 2026-05-05 16:59 | 41.80009 | 12.23630 | 409 ft | 182 kts | 247° |
| 2026-05-05 16:59 | 41.79619 | 12.21988 | 1045 ft | 196 kts | 253° |
| 2026-05-05 16:59 | 41.79514 | 12.20070 | 1622 ft | 221 kts | 271° |
| 2026-05-05 16:59 | 41.79607 | 12.17964 | 2328 ft | 229 kts | 268° |
| 2026-05-05 17:00 | 41.79556 | 12.15865 | 3101 ft | 232 kts | 256° |
| 2026-05-05 17:00 | 41.79032 | 12.13881 | 4039 ft | 229 kts | 235° |
| 2026-05-05 17:00 | 41.77953 | 12.12397 | 5031 ft | 224 kts | 213° |
| 2026-05-05 17:00 | 41.76649 | 12.11319 | 5941 ft | 225 kts | 212° |
| 2026-05-05 17:01 | 41.75357 | 12.10140 | 6821 ft | 228 kts | 219° |
| 2026-05-05 17:01 | 41.74153 | 12.08772 | 7683 ft | 230 kts | 219° |
| 2026-05-05 17:01 | 41.72884 | 12.07495 | 8539 ft | 233 kts | 217° |
| 2026-05-05 17:01 | 41.71577 | 12.06274 | 9397 ft | 234 kts | 217° |
| 2026-05-05 17:02 | 41.70189 | 12.05164 | 10256 ft | 236 kts | 207° |
| 2026-05-05 17:02 | 41.68605 | 12.04553 | 11030 ft | 244 kts | 191° |
| 2026-05-05 17:02 | 41.66891 | 12.04383 | 11626 ft | 256 kts | 184° |
| 2026-05-05 17:02 | 41.65067 | 12.04433 | 12317 ft | 266 kts | 182° |
| 2026-05-05 17:03 | 41.63221 | 12.04420 | 13066 ft | 269 kts | 189° |
| 2026-05-05 17:03 | 41.61353 | 12.04173 | 13845 ft | 271 kts | 192° |
| 2026-05-05 17:03 | 41.59494 | 12.04006 | 14604 ft | 277 kts | 180° |
| 2026-05-05 17:03 | 41.57588 | 12.04660 | 15298 ft | 291 kts | 155° |
| 2026-05-05 17:04 | 41.56057 | 12.06443 | 15979 ft | 304 kts | 129° |
| 2026-05-05 17:04 | 41.54816 | 12.08718 | 16559 ft | 311 kts | 133° |
| 2026-05-05 17:04 | 41.53341 | 12.10925 | 16961 ft | 326 kts | 136° |
| 2026-05-05 17:04 | 41.51763 | 12.13251 | 17089 ft | 350 kts | 135° |
| 2026-05-05 17:05 | 41.50032 | 12.15643 | 17298 ft | 367 kts | 140° |
| 2026-05-05 17:05 | 41.48160 | 12.18047 | 17701 ft | 380 kts | 136° |
| 2026-05-05 17:05 | 41.46378 | 12.20563 | 18538 ft | 378 kts | 137° |
| 2026-05-05 17:05 | 41.44497 | 12.23070 | 18975 ft | 388 kts | 138° |
| 2026-05-05 17:06 | 41.42564 | 12.25634 | 19508 ft | 395 kts | 138° |
| 2026-05-05 17:06 | 41.40642 | 12.28217 | 20129 ft | 399 kts | 137° |
| 2026-05-05 17:06 | 41.38687 | 12.30875 | 20728 ft | 403 kts | 137° |
| 2026-05-05 17:06 | 41.36729 | 12.33555 | 21316 ft | 407 kts | 137° |
| 2026-05-05 17:07 | 41.34759 | 12.36261 | 21901 ft | 411 kts | 137° |
| 2026-05-05 17:07 | 41.32754 | 12.39019 | 22470 ft | 416 kts | 137° |
| 2026-05-05 17:07 | 41.30754 | 12.41769 | 23012 ft | 420 kts | 137° |
| 2026-05-05 17:07 | 41.28718 | 12.44568 | 23563 ft | 424 kts | 137° |
| 2026-05-05 17:08 | 41.26658 | 12.47401 | 24090 ft | 428 kts | 137° |
| 2026-05-05 17:08 | 41.24581 | 12.50249 | 24593 ft | 433 kts | 137° |
| 2026-05-05 17:08 | 41.22479 | 12.53126 | 25093 ft | 437 kts | 137° |
| 2026-05-05 17:08 | 41.20353 | 12.56029 | 25554 ft | 442 kts | 137° |
| 2026-05-05 17:09 | 41.18192 | 12.58971 | 25877 ft | 450 kts | 137° |
| 2026-05-05 17:09 | 41.16022 | 12.61927 | 26174 ft | 458 kts | 137° |
| 2026-05-05 17:09 | 41.13775 | 12.64990 | 26611 ft | 462 kts | 137° |
| 2026-05-05 17:09 | 41.11542 | 12.68047 | 27048 ft | 465 kts | 138° |
| 2026-05-05 17:10 | 41.09272 | 12.71157 | 27483 ft | 468 kts | 138° |
| 2026-05-05 17:10 | 41.07006 | 12.74255 | 28029 ft | 468 kts | 138° |
| 2026-05-05 17:10 | 41.04772 | 12.77304 | 28559 ft | 467 kts | 139° |
| 2026-05-05 17:10 | 41.02484 | 12.80412 | 29050 ft | 467 kts | 139° |
| 2026-05-05 17:11 | 41.00225 | 12.83480 | 29515 ft | 467 kts | 139° |
| 2026-05-05 17:11 | 40.97981 | 12.86518 | 29969 ft | 467 kts | 139° |
| 2026-05-05 17:11 | 40.95721 | 12.89594 | 30439 ft | 468 kts | 137° |
| 2026-05-05 17:11 | 40.93624 | 12.92885 | 30895 ft | 471 kts | 130° |
| 2026-05-05 17:12 | 40.91785 | 12.96484 | 31362 ft | 473 kts | 124° |
| 2026-05-05 17:12 | 40.90268 | 13.00292 | 31757 ft | 476 kts | 117° |
| 2026-05-05 17:12 | 40.89037 | 13.04406 | 32106 ft | 480 kts | 110° |
| 2026-05-05 17:12 | 40.88019 | 13.08625 | 32451 ft | 482 kts | 109° |
| 2026-05-05 17:13 | 40.87057 | 13.12825 | 32761 ft | 484 kts | 108° |
| 2026-05-05 17:13 | 40.86091 | 13.17077 | 33011 ft | 486 kts | 108° |
| 2026-05-05 17:13 | 40.84118 | 13.25626 | 33036 ft | 487 kts | 108° |
| 2026-05-05 17:14 | 40.82135 | 13.34098 | 33037 ft | 487 kts | 108° |
| 2026-05-05 17:14 | 40.80129 | 13.42603 | 33038 ft | 485 kts | 108° |
| 2026-05-05 17:15 | 40.78127 | 13.51053 | 33040 ft | 485 kts | 108° |
| 2026-05-05 17:15 | 40.76114 | 13.59526 | 33036 ft | 484 kts | 108° |
| 2026-05-05 17:16 | 40.74097 | 13.68004 | 33040 ft | 485 kts | 109° |
| 2026-05-05 17:16 | 40.72087 | 13.76437 | 33039 ft | 484 kts | 109° |
| 2026-05-05 17:17 | 40.70062 | 13.84886 | 33042 ft | 484 kts | 109° |
| 2026-05-05 17:17 | 40.68039 | 13.93263 | 33036 ft | 484 kts | 109° |
| 2026-05-05 17:18 | 40.65986 | 14.01700 | 33043 ft | 484 kts | 109° |
| 2026-05-05 17:18 | 40.63940 | 14.10121 | 33041 ft | 484 kts | 109° |
| 2026-05-05 17:19 | 40.61895 | 14.18504 | 33042 ft | 483 kts | 109° |
| 2026-05-05 17:19 | 40.59208 | 14.26525 | 33040 ft | 479 kts | 125° |
| 2026-05-05 17:20 | 40.54846 | 14.32924 | 33042 ft | 470 kts | 145° |
| 2026-05-05 17:20 | 40.49277 | 14.37190 | 33034 ft | 458 kts | 164° |
| 2026-05-05 17:21 | 40.43260 | 14.39712 | 33040 ft | 456 kts | 168° |
| 2026-05-05 17:22 | 40.34154 | 14.43336 | 33040 ft | 457 kts | 168° |
| 2026-05-05 17:22 | 40.28060 | 14.45808 | 33045 ft | 457 kts | 167° |
| 2026-05-05 17:23 | 40.22004 | 14.48279 | 33045 ft | 457 kts | 167° |
| 2026-05-05 17:23 | 40.15941 | 14.50749 | 33049 ft | 458 kts | 167° |
| 2026-05-05 17:24 | 40.09838 | 14.53232 | 33048 ft | 458 kts | 167° |
| 2026-05-05 17:24 | 40.03792 | 14.55689 | 33049 ft | 458 kts | 167° |
| 2026-05-05 17:25 | 39.97694 | 14.58162 | 33049 ft | 458 kts | 167° |
| 2026-05-05 17:25 | 39.91613 | 14.60623 | 33050 ft | 458 kts | 167° |
| 2026-05-05 17:26 | 39.85516 | 14.63082 | 33052 ft | 458 kts | 167° |
| 2026-05-05 17:26 | 39.79438 | 14.65528 | 33053 ft | 459 kts | 168° |
| 2026-05-05 17:27 | 39.73342 | 14.68008 | 33049 ft | 458 kts | 168° |
| 2026-05-05 17:27 | 39.67255 | 14.70469 | 33050 ft | 458 kts | 168° |
| 2026-05-05 17:28 | 39.61214 | 14.72897 | 33049 ft | 458 kts | 168° |
| 2026-05-05 17:28 | 39.58139 | 14.74130 | 32897 ft | 456 kts | 168° |
| 2026-05-05 17:28 | 39.55111 | 14.75342 | 32062 ft | 461 kts | 168° |
| 2026-05-05 17:28 | 39.52059 | 14.76557 | 30957 ft | 469 kts | 167° |
| 2026-05-05 17:29 | 39.48940 | 14.77800 | 30064 ft | 471 kts | 167° |
| 2026-05-05 17:29 | 39.45836 | 14.79038 | 29255 ft | 471 kts | 167° |
| 2026-05-05 17:29 | 39.42700 | 14.80290 | 28377 ft | 472 kts | 167° |
| 2026-05-05 17:29 | 39.39581 | 14.81532 | 27452 ft | 473 kts | 167° |
| 2026-05-05 17:30 | 39.36443 | 14.82781 | 26535 ft | 474 kts | 167° |
| 2026-05-05 17:30 | 39.33326 | 14.84022 | 25904 ft | 468 kts | 166° |
| 2026-05-05 17:30 | 39.30215 | 14.85262 | 25304 ft | 462 kts | 167° |
| 2026-05-05 17:30 | 39.27175 | 14.86471 | 24650 ft | 458 kts | 166° |
| 2026-05-05 17:31 | 39.24155 | 14.87669 | 23978 ft | 454 kts | 166° |
| 2026-05-05 17:31 | 39.21154 | 14.88859 | 23313 ft | 451 kts | 166° |
| 2026-05-05 17:31 | 39.18136 | 14.90055 | 22665 ft | 448 kts | 166° |
| 2026-05-05 17:31 | 39.15197 | 14.91218 | 22068 ft | 443 kts | 166° |
| 2026-05-05 17:32 | 39.12250 | 14.92383 | 21493 ft | 438 kts | 166° |
| 2026-05-05 17:32 | 39.09369 | 14.93522 | 20916 ft | 434 kts | 166° |
| 2026-05-05 17:32 | 39.06485 | 14.94659 | 20273 ft | 431 kts | 166° |
| 2026-05-05 17:32 | 39.03670 | 14.95768 | 19744 ft | 426 kts | 166° |
| 2026-05-05 17:33 | 39.00837 | 14.96885 | 19238 ft | 420 kts | 166° |
| 2026-05-05 17:33 | 38.98093 | 14.97966 | 18761 ft | 414 kts | 166° |
| 2026-05-05 17:33 | 38.95352 | 14.99045 | 18270 ft | 408 kts | 166° |
| 2026-05-05 17:33 | 38.92676 | 15.00097 | 17797 ft | 403 kts | 166° |
| 2026-05-05 17:34 | 38.90004 | 15.01147 | 17293 ft | 399 kts | 166° |
| 2026-05-05 17:34 | 38.87347 | 15.02187 | 16764 ft | 396 kts | 166° |
| 2026-05-05 17:34 | 38.84717 | 15.03215 | 16248 ft | 394 kts | 166° |
| 2026-05-05 17:34 | 38.82102 | 15.04239 | 15708 ft | 391 kts | 166° |
| 2026-05-05 17:35 | 38.79516 | 15.05252 | 15194 ft | 387 kts | 166° |
| 2026-05-05 17:35 | 38.76981 | 15.06244 | 14713 ft | 384 kts | 166° |
| 2026-05-05 17:35 | 38.74426 | 15.07242 | 14198 ft | 381 kts | 166° |
| 2026-05-05 17:35 | 38.71920 | 15.08281 | 13696 ft | 380 kts | 161° |
| 2026-05-05 17:36 | 38.69568 | 15.09785 | 13228 ft | 380 kts | 151° |
| 2026-05-05 17:36 | 38.67448 | 15.11776 | 12768 ft | 379 kts | 143° |
| 2026-05-05 17:36 | 38.65421 | 15.13955 | 12301 ft | 376 kts | 141° |
| 2026-05-05 17:36 | 38.63447 | 15.16122 | 11836 ft | 372 kts | 141° |
| 2026-05-05 17:37 | 38.61503 | 15.18250 | 11530 ft | 364 kts | 141° |
| 2026-05-05 17:37 | 38.59623 | 15.20295 | 11419 ft | 349 kts | 141° |
| 2026-05-05 17:37 | 38.57805 | 15.22261 | 11298 ft | 335 kts | 142° |
| 2026-05-05 17:37 | 38.56066 | 15.24134 | 11248 ft | 320 kts | 142° |
| 2026-05-05 17:38 | 38.54400 | 15.25924 | 11188 ft | 306 kts | 142° |
| 2026-05-05 17:38 | 38.52799 | 15.27641 | 11120 ft | 293 kts | 142° |
| 2026-05-05 17:38 | 38.51281 | 15.29267 | 11069 ft | 280 kts | 142° |
| 2026-05-05 17:38 | 38.49804 | 15.30845 | 10749 ft | 280 kts | 143° |
| 2026-05-05 17:39 | 38.48306 | 15.32438 | 10278 ft | 284 kts | 142° |
| 2026-05-05 17:39 | 38.46766 | 15.34076 | 9823 ft | 287 kts | 142° |
| 2026-05-05 17:39 | 38.45232 | 15.35707 | 9376 ft | 289 kts | 142° |
| 2026-05-05 17:39 | 38.43692 | 15.37348 | 8931 ft | 291 kts | 141° |
| 2026-05-05 17:40 | 38.42137 | 15.39006 | 8477 ft | 294 kts | 141° |
| 2026-05-05 17:40 | 38.40572 | 15.40673 | 8026 ft | 295 kts | 141° |
| 2026-05-05 17:40 | 38.38994 | 15.42358 | 7568 ft | 297 kts | 141° |
| 2026-05-05 17:40 | 38.37417 | 15.44040 | 7105 ft | 298 kts | 141° |
| 2026-05-05 17:41 | 38.35833 | 15.45729 | 6637 ft | 299 kts | 140° |
| 2026-05-05 17:41 | 38.34223 | 15.47444 | 6152 ft | 300 kts | 140° |
| 2026-05-05 17:41 | 38.32630 | 15.49138 | 5676 ft | 301 kts | 140° |
| 2026-05-05 17:41 | 38.31020 | 15.50849 | 5197 ft | 301 kts | 140° |
| 2026-05-05 17:42 | 38.29423 | 15.52543 | 4727 ft | 301 kts | 140° |
| 2026-05-05 17:42 | 38.27807 | 15.54145 | 4476 ft | 281 kts | 150° |
| 2026-05-05 17:42 | 38.26024 | 15.54839 | 4210 ft | 263 kts | 173° |
| 2026-05-05 17:42 | 38.24241 | 15.54991 | 3710 ft | 256 kts | 177° |
| 2026-05-05 17:43 | 38.22494 | 15.55230 | 3212 ft | 249 kts | 161° |
| 2026-05-05 17:43 | 38.20958 | 15.56074 | 2968 ft | 235 kts | 152° |
| 2026-05-05 17:43 | 38.19510 | 15.57017 | 2780 ft | 227 kts | 151° |
| 2026-05-05 17:43 | 38.18132 | 15.57933 | 2509 ft | 225 kts | 151° |
| 2026-05-05 17:44 | 38.16761 | 15.58838 | 1970 ft | 222 kts | 152° |
| 2026-05-05 17:44 | 38.15437 | 15.59699 | 1622 ft | 203 kts | 152° |
| 2026-05-05 17:44 | 38.14222 | 15.60539 | 1224 ft | 197 kts | 152° |
| 2026-05-05 17:44 | 38.13036 | 15.61342 | 915 ft | 193 kts | 153° |
| 2026-05-05 17:45 | 38.11779 | 15.62170 | 603 ft | 211 kts | 153° |
| 2026-05-05 17:45 | 38.10555 | 15.62954 | 438 ft | 179 kts | 154° |
| 2026-05-05 17:45 | 38.09536 | 15.63608 | 361 ft | 151 kts | 156° |
| 2026-05-05 17:45 | 38.08639 | 15.64180 | 176 ft | 138 kts | 155° |
| 2026-05-05 17:46 | 38.07818 | 15.64708 | 97 ft | 128 kts | 155° |
| 2026-05-05 17:46 | 38.07063 | 15.65190 | 64 ft | 114 kts | 155° |
| 2026-05-05 17:46 | 38.06220 | 15.65694 | 268 ft | 149 kts | 156° |
| 2026-05-05 17:46 | 38.05210 | 15.66322 | 657 ft | 176 kts | 155° |
| 2026-05-05 17:47 | 38.04053 | 15.67097 | 1136 ft | 198 kts | 150° |
| 2026-05-05 17:47 | 38.02884 | 15.68145 | 1734 ft | 214 kts | 136° |
| 2026-05-05 17:47 | 38.02137 | 15.69723 | 2647 ft | 216 kts | 99° |
| 2026-05-05 17:47 | 38.02359 | 15.71561 | 3329 ft | 215 kts | 56° |
| 2026-05-05 17:48 | 38.03446 | 15.72778 | 3698 ft | 215 kts | 21° |
| 2026-05-05 17:48 | 38.04894 | 15.72979 | 3999 ft | 217 kts | 348° |
| 2026-05-05 17:48 | 38.06242 | 15.72117 | 3784 ft | 215 kts | 323° |
| 2026-05-05 17:48 | 38.07438 | 15.70900 | 3244 ft | 224 kts | 320° |
| 2026-05-05 17:49 | 38.08551 | 15.69617 | 2980 ft | 210 kts | 318° |
| 2026-05-05 17:49 | 38.09625 | 15.68409 | 2631 ft | 194 kts | 323° |
| 2026-05-05 17:49 | 38.10710 | 15.67532 | 2531 ft | 178 kts | 328° |
| 2026-05-05 17:49 | 38.11732 | 15.66753 | 2448 ft | 167 kts | 333° |
| 2026-05-05 17:50 | 38.12735 | 15.66004 | 2439 ft | 167 kts | 326° |
| 2026-05-05 17:50 | 38.13617 | 15.65100 | 2314 ft | 156 kts | 314° |
| 2026-05-05 17:50 | 38.14024 | 15.63903 | 2066 ft | 152 kts | 266° |
| 2026-05-05 17:50 | 38.13698 | 15.62635 | 1920 ft | 151 kts | 240° |
| 2026-05-05 17:51 | 38.12870 | 15.61849 | 1689 ft | 153 kts | 192° |
| 2026-05-05 17:51 | 38.11836 | 15.62079 | 1345 ft | 156 kts | 156° |
| 2026-05-05 17:51 | 38.10882 | 15.62762 | 851 ft | 161 kts | 152° |
| 2026-05-05 17:51 | 38.09896 | 15.63389 | 486 ft | 155 kts | 155° |
| 2026-05-05 17:52 | 38.08979 | 15.63968 | 266 ft | 142 kts | 156° |
| 2026-05-05 17:52 | 38.08116 | 15.64517 | 127 ft | 136 kts | 156° |
| 2026-05-05 17:52 | 38.07269 | 15.65061 | 68 ft | 127 kts | 155° |
| 2026-05-05 17:52 | 38.06747 | 15.65384 | 60 ft | 51 kts | 153° |
| 2026-05-05 17:53 | 38.06504 | 15.65539 | 60 ft | 25 kts | 155° |
| 2026-05-05 17:53 | 38.06459 | 15.65630 | 61 ft | 14 kts | 348° |
| 2026-05-05 17:53 | 38.06536 | 15.65538 | 60 ft | 16 kts | 327° |
| 2026-05-05 17:53 | 38.06639 | 15.65465 | 59 ft | 17 kts | 330° |
| 2026-05-05 17:54 | 38.06749 | 15.65393 | 60 ft | 18 kts | 335° |
| 2026-05-05 17:54 | 38.06875 | 15.65315 | 61 ft | 21 kts | 330° |
| 2026-05-05 17:54 | 38.07010 | 15.65223 | 63 ft | 22 kts | 333° |
| 2026-05-05 17:54 | 38.07157 | 15.65126 | 65 ft | 24 kts | 332° |
| 2026-05-05 17:55 | 38.07280 | 15.65076 | 67 ft | 12 kts | 43° |
| 2026-05-05 17:55 | 38.07321 | 15.65175 | 68 ft | 12 kts | 65° |
| 2026-05-05 17:55 | 38.07310 | 15.65270 | 68 ft | 12 kts | 154° |
| 2026-05-05 17:55 | 38.07283 | 15.65299 | 67 ft | 3 kts | 105° |
| 2026-05-05 17:56 | 38.07268 | 15.65337 | 67 ft | 6 kts | 120° |
| 2026-05-05 17:56 | 38.07254 | 15.65365 | 66 ft | 0 kts | 124° |